Hauptseite
METAR-TAF:

METAR-TAF

Flughäfen :

Flugplatz Shoreham

Brighton, England

Breite: 50-50N, Länge: 000-17W, Höhe: 2 m

Beobachtung

Neuester Wetterbericht von vor 6 Stunden und 9 Minuten, um 18:50 UTC
Wind 2 kt aus Ost/Südost
Temperatur 14°C
Luftfeuchtigkeit 72%
Luftdruck 1002 hPa
Sichtweite: 9000 m

METAR: EGKA 221850Z 11002KT 9000 NSC 14/09 Q1002

Zeit: 01:59 (00:59 UTC)

Prognose

Neuester Wetterbericht von vor 10 Stunden und 3 Minuten, um 14:56 UTC
Gültige Prognose vom 22 um 15 UTC bis 22 um 19 UTC
Wind 8 kt aus Südost
Sichtweite: 4000 m
trockener Dunst
Zeitweise
vom 22 um 15 UTC bis 22 um 19 UTC
Sichtweite 10 km oder mehr
keine Wolken unter 1500 m und keine Kumulonimbus oder Gewitterwolken

TAF: EGKA 221456Z 2215/2219 13008KT 4000 HZ NSC TEMPO 2215/2219 CAVOK

Wetterbeobachtungen und Prognosen von mehr als 4000 Flughäfen (METAR und TAF Bericht).

Die verfügbaren Stationen werden durch gelbe und rote Markierungen auf der Karte dargestellt.

Führen Sie die Maus auf sie, um den Namen der Station zu sehen.

Darauf klicken, um die Beobachtung von Wetterbeobachtungen und Prognosen zu sehen.

Um die Karte zu ändern : klicken Sie auf den grünen Tasten mit einem schwarzen Kreuz Zum Vergrößern, auf den grünen Button mit einem Gedankenstrich zu verkleinern, oder auf die grünen Pfeile für benachbarte Karten.


METAR-TAF: